Cotes De La Manche — FQBE — position and weather

sailwx.info

Track history (hours):
 
Tides and Currents Weather Stations Pressure Air Temp Water Temp Dewpoint Dewpoint Depression Visibility Wind Speed Wind Dir Waves Ship Positions

Cotes De La Manche

Last reported at 2017-Feb-28 12:34 UTC. Time now 2017-Feb-28 12:47 UTC.
Position N 48°20' W 004°29'.

Length 25 m; draft 3.7 m.

Type: Other ship. MMSI: 227091000.

Date/timePositionNaut miles runAvg speedWind from/ knotsBaromVisibWave heightAir tempDewpointWater temp
2017-Feb-28 12:34N 48°20' W 004°29'0 0.0
2017-Feb-28 11:34N 48°20' W 004°29'0 0.0
2017-Feb-28 10:34N 48°20' W 004°29'0 0.0
2017-Feb-28 09:34N 48°20' W 004°29'1 1.1
2017-Feb-28 08:34N 48°21' W 004°29'5 5.0
2017-Feb-28 07:34N 48°18' W 004°23'0 0.1
2017-Feb-28 06:34N 48°18' W 004°23'0 0.0
2017-Feb-28 05:33N 48°18' W 004°23'0 0.0
2017-Feb-28 04:34N 48°18' W 004°23'0 0.0
2017-Feb-28 03:33N 48°18' W 004°23'0 0.0
2017-Feb-28 02:34N 48°18' W 004°23'0 0.0
2017-Feb-28 01:34N 48°18' W 004°23'0 0.0
2017-Feb-28 00:34N 48°18' W 004°23'0 0.0
2017-Feb-27 23:34N 48°19' W 004°23'0 0.0
2017-Feb-27 22:34N 48°19' W 004°23'0 0.0
2017-Feb-27 21:34N 48°18' W 004°23'0 0.0
2017-Feb-27 20:33N 48°18' W 004°23'0 0.0
2017-Feb-27 19:34N 48°18' W 004°23'1 1.1
2017-Feb-27 18:34N 48°19' W 004°21'1 0.8
2017-Feb-27 17:34N 48°18' W 004°21'0 0.0
2017-Feb-27 16:34N 48°18' W 004°21'0 0.0
2017-Feb-27 15:34N 48°18' W 004°21'0 0.0
2017-Feb-27 14:34N 48°18' W 004°21'0 0.0
2017-Feb-27 13:34N 48°18' W 004°21'0 0.0
2017-Feb-27 12:33N 48°18' W 004°21'1 0.8
2017-Feb-27 11:33N 48°18' W 004°20'0 0.3
2017-Feb-27 10:34N 48°18' W 004°20'6 5.5
2017-Feb-27 09:34N 48°19' W 004°28'4 3.8
2017-Feb-27 08:33N 48°23' W 004°29'0 0.0
2017-Feb-27 07:34N 48°23' W 004°29'0 0.0
2017-Feb-27 06:34N 48°23' W 004°29'0 0.0
2017-Feb-27 05:34N 48°23' W 004°29'0 0.0
2017-Feb-27 04:34N 48°23' W 004°29'0 0.0
2017-Feb-27 03:34N 48°23' W 004°29'0 0.0
2017-Feb-27 02:34N 48°23' W 004°29'0 0.0
2017-Feb-27 01:34N 48°23' W 004°29'0 0.0
2017-Feb-27 00:34N 48°23' W 004°29'0 0.0
2017-Feb-26 23:33N 48°23' W 004°29'0 0.0
2017-Feb-26 22:34N 48°23' W 004°29'0 0.0
2017-Feb-26 21:34N 48°23' W 004°29'0 0.0
2017-Feb-26 20:34N 48°23' W 004°29'3 3.4
2017-Feb-26 19:34N 48°23' W 004°24'0 0.2
2017-Feb-26 18:34N 48°23' W 004°23'1 0.5
2017-Feb-26 17:34N 48°23' W 004°24'4 3.7
2017-Feb-26 16:34N 48°21' W 004°29'4 4.3
2017-Feb-26 15:33N 48°19' W 004°23'0 0.0
2017-Feb-26 14:33N 48°19' W 004°23'0 0.5
2017-Feb-26 13:34N 48°19' W 004°23'0 0.2
2017-Feb-26 12:33N 48°19' W 004°23'0 0.0
2017-Feb-26 11:34N 48°19' W 004°23'0 0.1
2017-Feb-26 10:34N 48°19' W 004°23'0 0.0
2017-Feb-26 09:34N 48°19' W 004°23'5 5.0
2017-Feb-26 08:34N 48°21' W 004°30'1 1.3
2017-Feb-26 07:34N 48°22' W 004°31'3 2.5
2017-Feb-26 06:34N 48°22' W 004°28'0 0.0
2017-Feb-26 05:34N 48°22' W 004°28'0 0.0
2017-Feb-26 04:34N 48°22' W 004°28'0 0.0
2017-Feb-26 03:33N 48°22' W 004°28'0 0.0
2017-Feb-26 02:34N 48°22' W 004°28'0 0.0
2017-Feb-26 01:34N 48°22' W 004°28'0 0.0
2017-Feb-26 00:34N 48°22' W 004°28'0 0.0
2017-Feb-25 23:34N 48°22' W 004°28'0 0.0
2017-Feb-25 22:34N 48°22' W 004°28'0 0.0
2017-Feb-25 21:33N 48°22' W 004°28'0 0.0
2017-Feb-25 20:34N 48°22' W 004°28'0 0.0
2017-Feb-25 19:34N 48°22' W 004°28'0 0.0
2017-Feb-25 18:34N 48°22' W 004°28'0 0.0
2017-Feb-25 17:33N 48°22' W 004°28'0 0.0
2017-Feb-25 16:34N 48°22' W 004°28'0 0.0
2017-Feb-25 15:34N 48°22' W 004°28'0 0.0
2017-Feb-25 14:34N 48°22' W 004°28'0 0.0
2017-Feb-25 13:33N 48°22' W 004°28'1 1.3
2017-Feb-25 12:34N 48°21' W 004°29'0 0.0
2017-Feb-25 11:33N 48°21' W 004°29'0 0.0
2017-Feb-25 10:34N 48°21' W 004°29'0 0.0
2017-Feb-25 09:34N 48°21' W 004°29'0 0.0
2017-Feb-25 08:33N 48°21' W 004°29'1 0.7
2017-Feb-25 07:34N 48°20' W 004°29'2 1.7
2017-Feb-25 06:33N 48°19' W 004°27'0 0.0
2017-Feb-25 05:33N 48°19' W 004°27'0 0.0
2017-Feb-25 04:34N 48°19' W 004°27'0 0.0
2017-Feb-25 03:34N 48°19' W 004°27'0 0.0
2017-Feb-25 02:34N 48°19' W 004°27'0 0.0
2017-Feb-25 01:34N 48°19' W 004°27'0 0.0
2017-Feb-25 00:34N 48°19' W 004°27'0 0.0
2017-Feb-24 23:34N 48°19' W 004°27'0 0.0
2017-Feb-24 22:34N 48°19' W 004°27'0 0.0
2017-Feb-24 21:34N 48°19' W 004°27'0 0.0
2017-Feb-24 20:34N 48°19' W 004°27'0 0.0
2017-Feb-24 19:34N 48°19' W 004°27'0 0.0
2017-Feb-24 18:33N 48°19' W 004°27'4 3.8
2017-Feb-24 17:34N 48°23' W 004°29'1 1.3
2017-Feb-24 16:34N 48°22' W 004°29'0 0.2
2017-Feb-24 15:34N 48°22' W 004°29'1 1.2
2017-Feb-24 14:33N 48°23' W 004°29'0 0.0
2017-Feb-24 13:34N 48°23' W 004°29'0 0.0
2017-Feb-24 12:34N 48°23' W 004°29'1010.4
2017-Feb-24 11:34N 48°19' W 004°43'7 7.0
2017-Feb-24 10:33N 48°24' W 004°49'9 9.4
2017-Feb-24 09:34N 48°34' W 004°49'134 3.1
2017-Feb-22 14:33N 49°45' W 001°54'9 8.9
2017-Feb-22 13:34N 49°41' W 001°42'4 4.0
2017-Feb-22 12:33N 49°39' W 001°37'0 0.0
2017-Feb-22 11:33N 49°39' W 001°37'1 0.8
2017-Feb-22 10:34N 49°40' W 001°37'1 1.2
2017-Feb-22 09:33N 49°40' W 001°39'1 0.9
2017-Feb-22 08:33N 49°40' W 001°37'1 1.1
2017-Feb-22 07:33N 49°40' W 001°36'1 1.2
2017-Feb-22 06:33N 49°39' W 001°37'0 0.0
2017-Feb-22 05:33N 49°39' W 001°37'0 0.0
2017-Feb-22 04:33N 49°39' W 001°37'0 0.0
2017-Feb-22 03:33N 49°39' W 001°37'0 0.0
2017-Feb-22 02:33N 49°39' W 001°37'0 0.0
2017-Feb-22 01:33N 49°39' W 001°37'0 0.0
2017-Feb-22 00:33N 49°39' W 001°37'0 0.0
2017-Feb-21 23:33N 49°39' W 001°37'0 0.0
2017-Feb-21 22:33N 49°39' W 001°37'0 0.0
2017-Feb-21 21:33N 49°39' W 001°37'0 0.0
2017-Feb-21 20:33N 49°39' W 001°37'0 0.0
2017-Feb-21 19:33N 49°39' W 001°37'0 0.0
2017-Feb-21 18:33N 49°39' W 001°37'1 0.9
2017-Feb-21 17:33N 49°40' W 001°38'2 1.6
2017-Feb-21 16:33N 49°41' W 001°36'2 2.3
2017-Feb-21 15:33N 49°43' W 001°36'2 1.9
2017-Feb-21 14:34N 49°42' W 001°39'1 1.3
2017-Feb-21 13:33N 49°41' W 001°40'3 2.8
2017-Feb-21 12:33N 49°40' W 001°36'0 0.0
2017-Feb-21 11:33N 49°40' W 001°36'1 1.3
2017-Feb-21 10:33N 49°40' W 001°38'0 0.3
2017-Feb-21 09:33N 49°40' W 001°39'2 1.6
2017-Feb-21 08:33N 49°39' W 001°37'0 0.5
2017-Feb-21 07:33N 49°39' W 001°37'0 0.0
2017-Feb-21 06:33N 49°39' W 001°37'0 0.0
2017-Feb-21 05:33N 49°39' W 001°37'0 0.0
2017-Feb-21 04:33N 49°39' W 001°37'0 0.0
2017-Feb-21 03:33N 49°39' W 001°37'0 0.0
2017-Feb-21 02:33N 49°39' W 001°37'0 0.0
2017-Feb-21 01:33N 49°39' W 001°37'0 0.0
2017-Feb-21 00:33N 49°39' W 001°37'0 0.0
2017-Feb-20 23:33N 49°39' W 001°37'0 0.0
2017-Feb-20 22:33N 49°39' W 001°37'0 0.0
2017-Feb-20 21:34N 49°39' W 001°37'0 0.0
2017-Feb-20 20:33N 49°39' W 001°37'0 0.0
2017-Feb-20 19:33N 49°39' W 001°37'0 0.0
2017-Feb-20 18:33N 49°39' W 001°37'0 0.0
2017-Feb-20 17:33N 49°39' W 001°37'0 0.0
2017-Feb-20 16:33N 49°39' W 001°37'0 0.0
2017-Feb-20 15:33N 49°39' W 001°37'0 0.0
2017-Feb-20 14:33N 49°39' W 001°37'1 1.5
2017-Feb-20 13:33N 49°40' W 001°38'1 0.5
2017-Feb-20 12:33N 49°40' W 001°37'0 0.0
2017-Feb-20 11:33N 49°40' W 001°37'1 0.8
2017-Feb-20 10:33N 49°40' W 001°39'0 0.4
2017-Feb-20 09:33N 49°40' W 001°38'0 0.4
2017-Feb-20 08:33N 49°40' W 001°37'0 0.4
2017-Feb-20 07:33N 49°40' W 001°37'3 3.1
2017-Feb-20 06:33N 49°41' W 001°41'3 3.4
2017-Feb-20 05:33N 49°43' W 001°46'3 3.2
2017-Feb-20 04:33N 49°44' W 001°50'2 0.2
2017-Feb-19 17:24N 49°45' W 001°54'1011.5
2017-Feb-19 16:33N 49°41' W 001°40'2 1.8
2017-Feb-19 15:33N 49°40' W 001°37'0 0.0
2017-Feb-19 14:33N 49°40' W 001°37'0 0.5
2017-Feb-19 13:33N 49°40' W 001°37'1 1.3
2017-Feb-19 12:33N 49°41' W 001°38'0 0.3
2017-Feb-19 11:33N 49°41' W 001°39'1 0.7
2017-Feb-19 10:33N 49°41' W 001°40'2 1.8
2017-Feb-19 09:33N 49°41' W 001°37'2 1.9
2017-Feb-19 08:33N 49°39' W 001°37'0 0.0
2017-Feb-19 07:33N 49°39' W 001°37'0 0.0
2017-Feb-19 06:33N 49°39' W 001°37'0 0.0
2017-Feb-19 05:33N 49°39' W 001°37'0 0.0
2017-Feb-19 04:33N 49°39' W 001°37'0 0.0
2017-Feb-19 03:33N 49°39' W 001°37'0 0.0
2017-Feb-19 02:33N 49°39' W 001°37'0 0.0
2017-Feb-19 01:33N 49°39' W 001°37'0 0.0
2017-Feb-19 00:33N 49°39' W 001°37'0 0.0
2017-Feb-18 23:33N 49°39' W 001°37'0 0.0
2017-Feb-18 22:33N 49°39' W 001°37'0 0.0
2017-Feb-18 21:33N 49°39' W 001°37'0 0.0
2017-Feb-18 20:33N 49°39' W 001°37'0 0.0
2017-Feb-18 19:33N 49°39' W 001°37'0 0.0
2017-Feb-18 18:33N 49°39' W 001°37'0 0.0
2017-Feb-18 17:33N 49°39' W 001°37'1 0.8
2017-Feb-18 16:34N 49°40' W 001°37'1110.7
2017-Feb-18 15:33N 49°45' W 001°23'1010.1
2017-Feb-18 14:32N 49°44' W 001°07'9 8.9
2017-Feb-18 13:31N 49°44' W 000°53'  
Track history (hours):
 
Tides and Currents Weather Stations Pressure Air Temp Water Temp Dewpoint Dewpoint Depression Visibility Wind Speed Wind Dir Waves Ship Positions

Cotes De La Manche

Last reported at 2017-Feb-28 12:34 UTC. Time now 2017-Feb-28 12:47 UTC.
Position N 48°20' W 004°29'.

Length 25 m; draft 3.7 m.

Type: Other ship. MMSI: 227091000.

Date/timePositionNaut miles runAvg speedWind from/ knotsBaromVisibWave heightAir tempDewpointWater temp
2017-Feb-28 12:34N 48°20' W 004°29'0 0.0
2017-Feb-28 11:34N 48°20' W 004°29'0 0.0
2017-Feb-28 10:34N 48°20' W 004°29'0 0.0
2017-Feb-28 09:34N 48°20' W 004°29'1 1.1
2017-Feb-28 08:34N 48°21' W 004°29'5 5.0
2017-Feb-28 07:34N 48°18' W 004°23'0 0.1
2017-Feb-28 06:34N 48°18' W 004°23'0 0.0
2017-Feb-28 05:33N 48°18' W 004°23'0 0.0
2017-Feb-28 04:34N 48°18' W 004°23'0 0.0
2017-Feb-28 03:33N 48°18' W 004°23'0 0.0
2017-Feb-28 02:34N 48°18' W 004°23'0 0.0
2017-Feb-28 01:34N 48°18' W 004°23'0 0.0
2017-Feb-28 00:34N 48°18' W 004°23'0 0.0
2017-Feb-27 23:34N 48°19' W 004°23'0 0.0
2017-Feb-27 22:34N 48°19' W 004°23'0 0.0
2017-Feb-27 21:34N 48°18' W 004°23'0 0.0
2017-Feb-27 20:33N 48°18' W 004°23'0 0.0
2017-Feb-27 19:34N 48°18' W 004°23'1 1.1
2017-Feb-27 18:34N 48°19' W 004°21'1 0.8
2017-Feb-27 17:34N 48°18' W 004°21'0 0.0
2017-Feb-27 16:34N 48°18' W 004°21'0 0.0
2017-Feb-27 15:34N 48°18' W 004°21'0 0.0
2017-Feb-27 14:34N 48°18' W 004°21'0 0.0
2017-Feb-27 13:34N 48°18' W 004°21'0 0.0
2017-Feb-27 12:33N 48°18' W 004°21'1 0.8
2017-Feb-27 11:33N 48°18' W 004°20'0 0.3
2017-Feb-27 10:34N 48°18' W 004°20'6 5.5
2017-Feb-27 09:34N 48°19' W 004°28'4 3.8
2017-Feb-27 08:33N 48°23' W 004°29'0 0.0
2017-Feb-27 07:34N 48°23' W 004°29'0 0.0
2017-Feb-27 06:34N 48°23' W 004°29'0 0.0
2017-Feb-27 05:34N 48°23' W 004°29'0 0.0
2017-Feb-27 04:34N 48°23' W 004°29'0 0.0
2017-Feb-27 03:34N 48°23' W 004°29'0 0.0
2017-Feb-27 02:34N 48°23' W 004°29'0 0.0
2017-Feb-27 01:34N 48°23' W 004°29'0 0.0
2017-Feb-27 00:34N 48°23' W 004°29'0 0.0
2017-Feb-26 23:33N 48°23' W 004°29'0 0.0
2017-Feb-26 22:34N 48°23' W 004°29'0 0.0
2017-Feb-26 21:34N 48°23' W 004°29'0 0.0
2017-Feb-26 20:34N 48°23' W 004°29'3 3.4
2017-Feb-26 19:34N 48°23' W 004°24'0 0.2
2017-Feb-26 18:34N 48°23' W 004°23'1 0.5
2017-Feb-26 17:34N 48°23' W 004°24'4 3.7
2017-Feb-26 16:34N 48°21' W 004°29'4 4.3
2017-Feb-26 15:33N 48°19' W 004°23'0 0.0
2017-Feb-26 14:33N 48°19' W 004°23'0 0.5
2017-Feb-26 13:34N 48°19' W 004°23'0 0.2
2017-Feb-26 12:33N 48°19' W 004°23'0 0.0
2017-Feb-26 11:34N 48°19' W 004°23'0 0.1
2017-Feb-26 10:34N 48°19' W 004°23'0 0.0
2017-Feb-26 09:34N 48°19' W 004°23'5 5.0
2017-Feb-26 08:34N 48°21' W 004°30'1 1.3
2017-Feb-26 07:34N 48°22' W 004°31'3 2.5
2017-Feb-26 06:34N 48°22' W 004°28'0 0.0
2017-Feb-26 05:34N 48°22' W 004°28'0 0.0
2017-Feb-26 04:34N 48°22' W 004°28'0 0.0
2017-Feb-26 03:33N 48°22' W 004°28'0 0.0
2017-Feb-26 02:34N 48°22' W 004°28'0 0.0
2017-Feb-26 01:34N 48°22' W 004°28'0 0.0
2017-Feb-26 00:34N 48°22' W 004°28'0 0.0
2017-Feb-25 23:34N 48°22' W 004°28'0 0.0
2017-Feb-25 22:34N 48°22' W 004°28'0 0.0
2017-Feb-25 21:33N 48°22' W 004°28'0 0.0
2017-Feb-25 20:34N 48°22' W 004°28'0 0.0
2017-Feb-25 19:34N 48°22' W 004°28'0 0.0
2017-Feb-25 18:34N 48°22' W 004°28'0 0.0
2017-Feb-25 17:33N 48°22' W 004°28'0 0.0
2017-Feb-25 16:34N 48°22' W 004°28'0 0.0
2017-Feb-25 15:34N 48°22' W 004°28'0 0.0
2017-Feb-25 14:34N 48°22' W 004°28'0 0.0
2017-Feb-25 13:33N 48°22' W 004°28'1 1.3
2017-Feb-25 12:34N 48°21' W 004°29'0 0.0
2017-Feb-25 11:33N 48°21' W 004°29'0 0.0
2017-Feb-25 10:34N 48°21' W 004°29'0 0.0
2017-Feb-25 09:34N 48°21' W 004°29'0 0.0
2017-Feb-25 08:33N 48°21' W 004°29'1 0.7
2017-Feb-25 07:34N 48°20' W 004°29'2 1.7
2017-Feb-25 06:33N 48°19' W 004°27'0 0.0
2017-Feb-25 05:33N 48°19' W 004°27'0 0.0
2017-Feb-25 04:34N 48°19' W 004°27'0 0.0
2017-Feb-25 03:34N 48°19' W 004°27'0 0.0
2017-Feb-25 02:34N 48°19' W 004°27'0 0.0
2017-Feb-25 01:34N 48°19' W 004°27'0 0.0
2017-Feb-25 00:34N 48°19' W 004°27'0 0.0
2017-Feb-24 23:34N 48°19' W 004°27'0 0.0
2017-Feb-24 22:34N 48°19' W 004°27'0 0.0
2017-Feb-24 21:34N 48°19' W 004°27'0 0.0
2017-Feb-24 20:34N 48°19' W 004°27'0 0.0
2017-Feb-24 19:34N 48°19' W 004°27'0 0.0
2017-Feb-24 18:33N 48°19' W 004°27'4 3.8
2017-Feb-24 17:34N 48°23' W 004°29'1 1.3
2017-Feb-24 16:34N 48°22' W 004°29'0 0.2
2017-Feb-24 15:34N 48°22' W 004°29'1 1.2
2017-Feb-24 14:33N 48°23' W 004°29'0 0.0
2017-Feb-24 13:34N 48°23' W 004°29'0 0.0
2017-Feb-24 12:34N 48°23' W 004°29'1010.4
2017-Feb-24 11:34N 48°19' W 004°43'7 7.0
2017-Feb-24 10:33N 48°24' W 004°49'9 9.4
2017-Feb-24 09:34N 48°34' W 004°49'134 3.1
2017-Feb-22 14:33N 49°45' W 001°54'9 8.9
2017-Feb-22 13:34N 49°41' W 001°42'4 4.0
2017-Feb-22 12:33N 49°39' W 001°37'0 0.0
2017-Feb-22 11:33N 49°39' W 001°37'1 0.8
2017-Feb-22 10:34N 49°40' W 001°37'1 1.2
2017-Feb-22 09:33N 49°40' W 001°39'1 0.9
2017-Feb-22 08:33N 49°40' W 001°37'1 1.1
2017-Feb-22 07:33N 49°40' W 001°36'1 1.2
2017-Feb-22 06:33N 49°39' W 001°37'0 0.0
2017-Feb-22 05:33N 49°39' W 001°37'0 0.0
2017-Feb-22 04:33N 49°39' W 001°37'0 0.0
2017-Feb-22 03:33N 49°39' W 001°37'0 0.0
2017-Feb-22 02:33N 49°39' W 001°37'0 0.0
2017-Feb-22 01:33N 49°39' W 001°37'0 0.0
2017-Feb-22 00:33N 49°39' W 001°37'0 0.0
2017-Feb-21 23:33N 49°39' W 001°37'0 0.0
2017-Feb-21 22:33N 49°39' W 001°37'0 0.0
2017-Feb-21 21:33N 49°39' W 001°37'0 0.0
2017-Feb-21 20:33N 49°39' W 001°37'0 0.0
2017-Feb-21 19:33N 49°39' W 001°37'0 0.0
2017-Feb-21 18:33N 49°39' W 001°37'1 0.9
2017-Feb-21 17:33N 49°40' W 001°38'2 1.6
2017-Feb-21 16:33N 49°41' W 001°36'2 2.3
2017-Feb-21 15:33N 49°43' W 001°36'2 1.9
2017-Feb-21 14:34N 49°42' W 001°39'1 1.3
2017-Feb-21 13:33N 49°41' W 001°40'3 2.8
2017-Feb-21 12:33N 49°40' W 001°36'0 0.0
2017-Feb-21 11:33N 49°40' W 001°36'1 1.3
2017-Feb-21 10:33N 49°40' W 001°38'0 0.3
2017-Feb-21 09:33N 49°40' W 001°39'2 1.6
2017-Feb-21 08:33N 49°39' W 001°37'0 0.5
2017-Feb-21 07:33N 49°39' W 001°37'0 0.0
2017-Feb-21 06:33N 49°39' W 001°37'0 0.0
2017-Feb-21 05:33N 49°39' W 001°37'0 0.0
2017-Feb-21 04:33N 49°39' W 001°37'0 0.0
2017-Feb-21 03:33N 49°39' W 001°37'0 0.0
2017-Feb-21 02:33N 49°39' W 001°37'0 0.0
2017-Feb-21 01:33N 49°39' W 001°37'0 0.0
2017-Feb-21 00:33N 49°39' W 001°37'0 0.0
2017-Feb-20 23:33N 49°39' W 001°37'0 0.0
2017-Feb-20 22:33N 49°39' W 001°37'0 0.0
2017-Feb-20 21:34N 49°39' W 001°37'0 0.0
2017-Feb-20 20:33N 49°39' W 001°37'0 0.0
2017-Feb-20 19:33N 49°39' W 001°37'0 0.0
2017-Feb-20 18:33N 49°39' W 001°37'0 0.0
2017-Feb-20 17:33N 49°39' W 001°37'0 0.0
2017-Feb-20 16:33N 49°39' W 001°37'0 0.0
2017-Feb-20 15:33N 49°39' W 001°37'0 0.0
2017-Feb-20 14:33N 49°39' W 001°37'1 1.5
2017-Feb-20 13:33N 49°40' W 001°38'1 0.5
2017-Feb-20 12:33N 49°40' W 001°37'0 0.0
2017-Feb-20 11:33N 49°40' W 001°37'1 0.8
2017-Feb-20 10:33N 49°40' W 001°39'0 0.4
2017-Feb-20 09:33N 49°40' W 001°38'0 0.4
2017-Feb-20 08:33N 49°40' W 001°37'0 0.4
2017-Feb-20 07:33N 49°40' W 001°37'3 3.1
2017-Feb-20 06:33N 49°41' W 001°41'3 3.4
2017-Feb-20 05:33N 49°43' W 001°46'3 3.2
2017-Feb-20 04:33N 49°44' W 001°50'2 0.2
2017-Feb-19 17:24N 49°45' W 001°54'1011.5
2017-Feb-19 16:33N 49°41' W 001°40'2 1.8
2017-Feb-19 15:33N 49°40' W 001°37'0 0.0
2017-Feb-19 14:33N 49°40' W 001°37'0 0.5
2017-Feb-19 13:33N 49°40' W 001°37'1 1.3
2017-Feb-19 12:33N 49°41' W 001°38'0 0.3
2017-Feb-19 11:33N 49°41' W 001°39'1 0.7
2017-Feb-19 10:33N 49°41' W 001°40'2 1.8
2017-Feb-19 09:33N 49°41' W 001°37'2 1.9
2017-Feb-19 08:33N 49°39' W 001°37'0 0.0
2017-Feb-19 07:33N 49°39' W 001°37'0 0.0
2017-Feb-19 06:33N 49°39' W 001°37'0 0.0
2017-Feb-19 05:33N 49°39' W 001°37'0 0.0
2017-Feb-19 04:33N 49°39' W 001°37'0 0.0
2017-Feb-19 03:33N 49°39' W 001°37'0 0.0
2017-Feb-19 02:33N 49°39' W 001°37'0 0.0
2017-Feb-19 01:33N 49°39' W 001°37'0 0.0
2017-Feb-19 00:33N 49°39' W 001°37'0 0.0
2017-Feb-18 23:33N 49°39' W 001°37'0 0.0
2017-Feb-18 22:33N 49°39' W 001°37'0 0.0
2017-Feb-18 21:33N 49°39' W 001°37'0 0.0
2017-Feb-18 20:33N 49°39' W 001°37'0 0.0
2017-Feb-18 19:33N 49°39' W 001°37'0 0.0
2017-Feb-18 18:33N 49°39' W 001°37'0 0.0
2017-Feb-18 17:33N 49°39' W 001°37'1 0.8
2017-Feb-18 16:34N 49°40' W 001°37'1110.7
2017-Feb-18 15:33N 49°45' W 001°23'1010.1
2017-Feb-18 14:32N 49°44' W 001°07'9 8.9
2017-Feb-18 13:31N 49°44' W 000°53'  

Dump ship's entire track history